createdAt,value
2018-07-15T00:01:05.344Z,101354.66
2018-07-15T00:03:34.220Z,101348.72
2018-07-15T00:06:00.894Z,101352.73
2018-07-15T00:08:27.576Z,101360.31
2018-07-15T00:10:55.236Z,101354.80
2018-07-15T00:13:22.857Z,101351.30
2018-07-15T00:15:50.505Z,101353.93
2018-07-15T00:18:18.292Z,101349.88
2018-07-15T00:20:45.913Z,101352.43
2018-07-15T00:23:12.621Z,101351.66
2018-07-15T00:25:39.289Z,101356.83
2018-07-15T00:28:07.272Z,101357.17
2018-07-15T00:30:36.362Z,101360.42
2018-07-15T00:33:05.103Z,101359.83
2018-07-15T00:35:31.788Z,101366.22
2018-07-15T00:37:59.404Z,101365.77
2018-07-15T00:40:26.063Z,101363.11
2018-07-15T00:42:52.822Z,101370.56
2018-07-15T00:45:19.561Z,101356.97
2018-07-15T00:47:46.262Z,101356.83
2018-07-15T00:50:12.926Z,101357.08
2018-07-15T00:52:39.589Z,101355.15
2018-07-15T00:55:06.308Z,101359.51
2018-07-15T00:57:35.096Z,101358.78
2018-07-15T01:00:01.777Z,101356.09
2018-07-15T01:02:28.436Z,101364.79
2018-07-15T01:04:56.052Z,101355.47
2018-07-15T01:07:22.719Z,101354.52
2018-07-15T01:09:49.409Z,101357.28
2018-07-15T01:12:16.069Z,101349.18
2018-07-15T01:14:42.743Z,101354.03
2018-07-15T01:17:09.393Z,101357.88
2018-07-15T01:19:37.536Z,101354.14
2018-07-15T01:22:04.238Z,101353.95
2018-07-15T01:24:30.912Z,101347.75
2018-07-15T01:26:57.625Z,101345.47
2018-07-15T01:29:24.302Z,101344.18
2018-07-15T01:31:50.973Z,101344.39
2018-07-15T01:34:17.631Z,101347.78
2018-07-15T01:36:44.312Z,101340.55
2018-07-15T01:39:10.997Z,101343.06
2018-07-15T01:41:37.697Z,101344.18
2018-07-15T01:44:04.383Z,101347.08
2018-07-15T01:46:31.702Z,101350.68
2018-07-15T01:48:58.373Z,101345.40
2018-07-15T01:51:25.053Z,101346.73
2018-07-15T01:53:51.713Z,101350.57
2018-07-15T01:56:18.376Z,101349.48
2018-07-15T01:58:45.053Z,101343.94
2018-07-15T02:01:11.817Z,101341.11
2018-07-15T02:03:38.494Z,101346.20
2018-07-15T02:06:06.345Z,101349.59
2018-07-15T02:08:34.113Z,101349.95
2018-07-15T02:11:00.773Z,101351.27
2018-07-15T02:13:27.446Z,101352.22
2018-07-15T02:15:54.118Z,101350.16
2018-07-15T02:18:20.782Z,101339.92
2018-07-15T02:20:47.455Z,101347.30
2018-07-15T02:23:14.150Z,101340.16
2018-07-15T02:25:40.812Z,101346.66
2018-07-15T02:28:07.477Z,101342.23
2018-07-15T02:30:35.837Z,101335.91
2018-07-15T02:33:03.560Z,101333.88
2018-07-15T02:35:30.221Z,101338.35
2018-07-15T02:37:56.947Z,101336.33
2018-07-15T02:40:23.640Z,101333.91
2018-07-15T02:42:50.321Z,101338.98
2018-07-15T02:45:16.981Z,101330.53
2018-07-15T02:47:43.732Z,101332.03
2018-07-15T02:50:10.377Z,101339.81
2018-07-15T02:52:37.113Z,101333.73
2018-07-15T02:55:04.429Z,101331.58
2018-07-15T02:57:33.565Z,101332.34
2018-07-15T03:00:00.266Z,101331.39
2018-07-15T03:02:26.990Z,101334.75
2018-07-15T03:04:53.677Z,101338.73
2018-07-15T03:07:20.374Z,101340.87
2018-07-15T03:09:47.056Z,101334.34
2018-07-15T03:12:13.743Z,101337.72
2018-07-15T03:14:40.419Z,101344.15
2018-07-15T03:17:07.108Z,101340.20
2018-07-15T03:19:34.929Z,101339.71
2018-07-15T03:22:01.613Z,101343.47
2018-07-15T03:24:28.272Z,101344.05
2018-07-15T03:26:54.925Z,101347.19
2018-07-15T03:29:21.617Z,101338.48
2018-07-15T03:31:48.313Z,101346.07
2018-07-15T03:34:15.087Z,101344.28
2018-07-15T03:36:41.713Z,101345.72
2018-07-15T03:39:09.222Z,101343.55
2018-07-15T03:41:37.068Z,101340.06
2018-07-15T03:44:06.755Z,101346.27
2018-07-15T03:46:33.922Z,101345.99
2018-07-15T03:49:00.593Z,101339.84
2018-07-15T03:51:27.269Z,101338.79
2018-07-15T03:53:53.933Z,101340.58
2018-07-15T03:56:20.633Z,101342.47
2018-07-15T03:58:47.308Z,101344.05
2018-07-15T04:01:14.011Z,101347.40
2018-07-15T04:03:40.677Z,101349.81
2018-07-15T04:06:07.344Z,101349.45
2018-07-15T04:08:35.948Z,101353.58
2018-07-15T04:11:03.906Z,101347.61
2018-07-15T04:13:30.609Z,101346.07
2018-07-15T04:15:57.318Z,101351.48
2018-07-15T04:18:24.011Z,101352.92
2018-07-15T04:20:50.663Z,101349.45
2018-07-15T04:23:17.337Z,101355.28
2018-07-15T04:25:44.025Z,101356.58
2018-07-15T04:28:10.717Z,101361.89
2018-07-15T04:30:37.393Z,101356.75
2018-07-15T04:33:05.453Z,101348.27
2018-07-15T04:35:32.122Z,101355.85
2018-07-15T04:37:58.848Z,101361.27
2018-07-15T04:40:25.539Z,101365.03
2018-07-15T04:42:52.197Z,101365.49
2018-07-15T04:45:19.629Z,101360.81
2018-07-15T04:47:46.329Z,101361.16
2018-07-15T04:50:13.005Z,101363.33
2018-07-15T04:52:39.689Z,101367.80
2018-07-15T04:55:06.421Z,101365.03
2018-07-15T04:57:34.145Z,101366.82
2018-07-15T05:00:00.846Z,101369.37
2018-07-15T05:02:27.503Z,101369.61
2018-07-15T05:04:54.198Z,101369.48
2018-07-15T05:07:20.961Z,101372.62
2018-07-15T05:09:47.658Z,101372.37
2018-07-15T05:12:14.384Z,101370.45
2018-07-15T05:14:41.065Z,101377.58
2018-07-15T05:17:07.750Z,101374.33
2018-07-15T05:19:34.483Z,101377.92
2018-07-15T05:22:01.253Z,101375.27
2018-07-15T05:24:27.973Z,101378.41
2018-07-15T05:26:55.554Z,101381.07
2018-07-15T05:29:22.304Z,101378.11
2018-07-15T05:31:48.988Z,101381.67
2018-07-15T05:34:15.800Z,101381.25
2018-07-15T05:36:42.466Z,101378.73
2018-07-15T05:39:09.237Z,101377.96
2018-07-15T05:41:37.166Z,101378.80
2018-07-15T05:44:05.279Z,101377.81
2018-07-15T05:46:32.150Z,101374.23
2018-07-15T05:48:58.838Z,101376.13
2018-07-15T05:51:25.493Z,101372.39
2018-07-15T05:53:52.176Z,101362.25
2018-07-15T05:56:18.846Z,101372.15
2018-07-15T05:58:45.517Z,101368.13
2018-07-15T06:01:12.187Z,101375.53
2018-07-15T06:03:39.453Z,101367.66
2018-07-15T06:06:07.065Z,101380.56
2018-07-15T06:08:36.198Z,101375.05
2018-07-15T06:11:05.169Z,101382.09
2018-07-15T06:13:31.846Z,101392.77
2018-07-15T06:15:58.522Z,101389.58
2018-07-15T06:18:25.184Z,101392.13
2018-07-15T06:20:51.983Z,101386.43
2018-07-15T06:23:18.669Z,101379.92
2018-07-15T06:25:45.383Z,101380.67
2018-07-15T06:28:12.174Z,101383.47
2018-07-15T06:30:38.919Z,101383.12
2018-07-15T06:33:05.669Z,101391.44
2018-07-15T06:35:33.421Z,101384.94
2018-07-15T06:38:00.271Z,101386.96
2018-07-15T06:40:37.937Z,101386.02
2018-07-15T06:43:05.050Z,101384.34
2018-07-15T06:45:31.725Z,101382.73
2018-07-15T06:47:58.486Z,101378.64
2018-07-15T06:50:25.200Z,101369.20
2018-07-15T06:52:51.881Z,101372.84
2018-07-15T06:55:18.549Z,101376.23
2018-07-15T06:57:45.237Z,101369.94
2018-07-15T07:00:12.092Z,101373.42
2018-07-15T07:02:38.741Z,101369.06
2018-07-15T07:05:07.566Z,101366.69
2018-07-15T07:07:34.308Z,101368.61
2018-07-15T07:10:00.982Z,101366.05
2018-07-15T07:12:27.655Z,101367.38
2018-07-15T07:14:54.305Z,101357.24
2018-07-15T07:17:21.088Z,101356.05
2018-07-15T07:19:47.805Z,101363.05
2018-07-15T07:22:14.576Z,101357.14
2018-07-15T07:24:41.228Z,101361.02
2018-07-15T07:27:07.909Z,101365.84
2018-07-15T07:29:35.349Z,101363.89
2018-07-15T07:32:02.072Z,101368.70
2018-07-15T07:34:28.864Z,101361.58
2018-07-15T07:36:55.594Z,101362.30
2018-07-15T07:39:22.268Z,101356.84
2018-07-15T07:41:48.981Z,101357.58
2018-07-15T07:44:15.654Z,101358.52
2018-07-15T07:46:42.327Z,101360.09
2018-07-15T07:49:09.012Z,101358.41
2018-07-15T07:51:36.446Z,101358.41
2018-07-15T07:54:04.077Z,101358.03
2018-07-15T07:56:30.708Z,101362.66
2018-07-15T07:58:57.360Z,101352.27
2018-07-15T08:01:24.016Z,101358.31
2018-07-15T08:03:50.781Z,101359.02
2018-07-15T08:06:17.504Z,101355.77
2018-07-15T08:08:44.161Z,101353.11
2018-07-15T08:11:10.841Z,101346.03
2018-07-15T08:13:37.505Z,101346.61
2018-07-15T08:16:04.593Z,101345.77
2018-07-15T08:18:31.298Z,101346.80
2018-07-15T08:20:58.031Z,101344.75
2018-07-15T08:23:24.721Z,101346.86
2018-07-15T08:25:51.568Z,101345.53
2018-07-15T08:28:18.276Z,101342.58
2018-07-15T08:30:50.664Z,101346.52
2018-07-15T08:33:17.361Z,101343.66
2018-07-15T08:35:44.011Z,101349.17
2018-07-15T08:38:11.208Z,101345.53
2018-07-15T08:40:37.856Z,101347.64
2018-07-15T08:43:04.617Z,101342.42
2018-07-15T08:45:31.317Z,101341.39
2018-07-15T08:47:58.107Z,101334.16
2018-07-15T08:50:24.784Z,101342.23
2018-07-15T08:52:51.457Z,101344.00
2018-07-15T08:55:20.193Z,101341.00
2018-07-15T08:57:46.881Z,101338.36
2018-07-15T09:00:13.671Z,101341.39
2018-07-15T09:02:40.353Z,101334.61
2018-07-15T09:05:07.004Z,101334.95
2018-07-15T09:07:34.701Z,101333.38
2018-07-15T09:10:02.110Z,101333.02
2018-07-15T09:12:28.843Z,101339.88
2018-07-15T09:14:55.504Z,101335.14
2018-07-15T09:17:22.314Z,101333.62
2018-07-15T09:19:49.805Z,101339.17
2018-07-15T09:22:16.508Z,101340.31
2018-07-15T09:24:43.185Z,101334.41
2018-07-15T09:27:09.866Z,101337.01
2018-07-15T09:29:36.533Z,101337.56
2018-07-15T09:32:04.392Z,101349.02
2018-07-15T09:34:31.064Z,101341.94
2018-07-15T09:36:57.779Z,101340.46
2018-07-15T09:39:24.449Z,101339.52
2018-07-15T09:41:51.104Z,101340.11
2018-07-15T09:44:17.823Z,101336.97
2018-07-15T09:46:44.541Z,101326.24
2018-07-15T09:49:11.201Z,101332.48
2018-07-15T09:51:37.899Z,101333.96
2018-07-15T09:54:05.697Z,101328.99
2018-07-15T09:56:32.361Z,101332.39
2018-07-15T09:58:59.035Z,101329.88
2018-07-15T10:01:25.725Z,101333.72
2018-07-15T10:03:52.411Z,101325.27
2018-07-15T10:06:19.072Z,101329.83
2018-07-15T10:08:45.801Z,101337.64
2018-07-15T10:11:12.450Z,101330.60
2018-07-15T10:13:39.121Z,101327.35
2018-07-15T10:16:07.135Z,101330.54
2018-07-15T10:18:36.029Z,101326.88
2018-07-15T10:21:03.924Z,101329.16
2018-07-15T10:23:31.792Z,101324.06
2018-07-15T10:25:58.453Z,101325.25
2018-07-15T10:28:25.357Z,101321.84
2018-07-15T10:30:51.997Z,101317.77
2018-07-15T10:33:18.786Z,101322.10
2018-07-15T10:35:45.456Z,101317.27
2018-07-15T10:38:12.157Z,101315.34
2018-07-15T10:40:38.820Z,101313.58
2018-07-15T10:43:06.865Z,101320.42
2018-07-15T10:45:34.272Z,101320.83
2018-07-15T10:48:01.241Z,101314.19
2018-07-15T10:50:27.927Z,101302.51
2018-07-15T10:52:54.637Z,101308.52
2018-07-15T10:55:21.285Z,101306.55
2018-07-15T10:57:47.961Z,101308.86
2018-07-15T11:00:15.544Z,101307.68
2018-07-15T11:02:42.200Z,101305.28
2018-07-15T11:05:08.873Z,101297.59
2018-07-15T11:07:36.493Z,101296.96
2018-07-15T11:10:04.266Z,101291.00
2018-07-15T11:12:30.933Z,101295.77
2018-07-15T11:14:57.669Z,101294.99
2018-07-15T11:17:24.325Z,101291.50
2018-07-15T11:19:51.039Z,101289.82
2018-07-15T11:22:17.756Z,101287.16
2018-07-15T11:24:44.433Z,101282.83
2018-07-15T11:27:11.121Z,101280.69
2018-07-15T11:29:37.801Z,101278.41
2018-07-15T11:32:04.540Z,101276.01
2018-07-15T11:34:31.202Z,101278.52
2018-07-15T11:36:57.863Z,101275.38
2018-07-15T11:39:24.532Z,101270.75
2018-07-15T11:41:55.541Z,101277.66
2018-07-15T11:44:22.225Z,101265.95
2018-07-15T11:46:48.893Z,101263.79
2018-07-15T11:49:15.572Z,101265.46
2018-07-15T11:51:42.256Z,101265.23
2018-07-15T11:54:08.926Z,101262.72
2018-07-15T11:56:37.953Z,101260.55
2018-07-15T11:59:04.658Z,101253.76
2018-07-15T12:01:31.362Z,101255.73
2018-07-15T12:03:58.099Z,101249.00
2018-07-15T12:06:24.773Z,101254.31
2018-07-15T12:08:51.457Z,101256.24
2018-07-15T12:11:18.125Z,101245.93
2018-07-15T12:13:44.795Z,101244.02
2018-07-15T12:16:11.457Z,101244.52
2018-07-15T12:18:38.256Z,101228.86
2018-07-15T12:21:05.736Z,101229.90
2018-07-15T12:23:33.372Z,101216.12
2018-07-15T12:26:00.057Z,101216.46
2018-07-15T12:28:26.713Z,101221.98
2018-07-15T12:30:53.377Z,101215.05
2018-07-15T12:33:20.240Z,101219.19
2018-07-15T12:35:48.098Z,101218.92
2018-07-15T12:38:14.744Z,101224.33
2018-07-15T12:40:41.389Z,101222.99
2018-07-15T12:43:08.075Z,101218.52
2018-07-15T12:45:34.736Z,101215.69
2018-07-15T12:48:01.455Z,101209.47
2018-07-15T12:50:28.120Z,101208.06
2018-07-15T12:52:54.781Z,101205.05
2018-07-15T12:55:21.437Z,101202.40
2018-07-15T12:57:48.094Z,101210.52
2018-07-15T13:00:14.758Z,101204.83
2018-07-15T13:02:41.421Z,101199.10
2018-07-15T13:05:08.097Z,101197.08
2018-07-15T13:07:34.766Z,101197.08
2018-07-15T13:10:01.623Z,101194.77
2018-07-15T13:12:28.280Z,101193.44
2018-07-15T13:14:55.093Z,101191.42
2018-07-15T13:17:21.762Z,101190.78
2018-07-15T13:19:48.439Z,101189.86
2018-07-15T13:22:15.102Z,101189.34
2018-07-15T13:24:41.786Z,101188.02
2018-07-15T13:27:08.447Z,101178.56
2018-07-15T13:29:36.512Z,101186.72
2018-07-15T13:32:04.128Z,101179.23
2018-07-15T13:34:30.816Z,101174.98
2018-07-15T13:36:57.478Z,101176.31
2018-07-15T13:39:24.155Z,101179.58
2018-07-15T13:41:50.897Z,101175.97
2018-07-15T13:44:17.741Z,101172.06
2018-07-15T13:46:44.409Z,101172.06
2018-07-15T13:49:11.092Z,101163.81
2018-07-15T13:51:37.769Z,101165.63
2018-07-15T13:54:04.642Z,101159.05
2018-07-15T13:56:31.365Z,101162.96
2018-07-15T13:58:58.081Z,101161.86
2018-07-15T14:01:24.736Z,101154.38
2018-07-15T14:03:51.381Z,101160.45
2018-07-15T14:06:18.028Z,101156.12
2018-07-15T14:08:44.680Z,101152.39
2018-07-15T14:11:11.336Z,101148.17
2018-07-15T14:13:37.996Z,101152.05
2018-07-15T14:16:04.671Z,101146.02
2018-07-15T14:18:31.328Z,101143.84
2018-07-15T14:20:58.356Z,101139.37
2018-07-15T14:23:25.054Z,101139.78
2018-07-15T14:25:51.721Z,101129.50
2018-07-15T14:28:38.449Z,101129.50
2018-07-15T14:31:15.298Z,101124.59
2018-07-15T14:33:45.070Z,101120.08
2018-07-15T14:36:43.115Z,101117.19
2018-07-15T14:39:09.945Z,101113.28
2018-07-15T14:41:36.881Z,101105.54
2018-07-15T14:44:05.817Z,101106.98
2018-07-15T14:46:33.579Z,101113.44
2018-07-15T14:49:00.212Z,101112.80
2018-07-15T14:51:26.914Z,101107.70
2018-07-15T14:53:53.562Z,101103.56
2018-07-15T14:56:20.263Z,101103.56
2018-07-15T14:58:46.917Z,101092.78
2018-07-15T19:48:18.650Z,101093.24
2018-07-15T19:50:45.676Z,101093.58
2018-07-15T19:53:12.995Z,101097.84
2018-07-15T19:55:40.028Z,101099.47
2018-07-15T19:58:07.711Z,101099.25
2018-07-15T20:00:36.597Z,101104.72
2018-07-15T20:03:03.595Z,101099.55
2018-07-15T20:05:32.720Z,101100.50
2018-07-15T20:07:59.669Z,101100.99
2018-07-15T20:10:26.668Z,101100.50
2018-07-15T20:12:53.686Z,101105.33
2018-07-15T20:15:20.681Z,101101.98
2018-07-15T20:17:47.645Z,101108.77
2018-07-15T20:20:16.247Z,101099.25
2018-07-15T20:22:44.262Z,101098.41
2018-07-15T20:25:11.502Z,101100.92
2018-07-15T20:27:38.645Z,101104.91
2018-07-15T20:30:05.608Z,101103.38
2018-07-15T20:32:32.586Z,101103.38
2018-07-15T20:34:59.544Z,101102.81
2018-07-15T20:37:26.483Z,101092.33
2018-07-15T20:39:53.373Z,101097.65
2018-07-15T20:42:20.176Z,101098.83
2018-07-15T20:44:46.964Z,101101.83
2018-07-15T20:47:14.546Z,101096.31
2018-07-15T20:49:41.217Z,101086.45
2018-07-15T20:52:08.975Z,101089.11
2018-07-15T20:54:36.107Z,101090.92
2018-07-15T20:57:02.877Z,101091.77
2018-07-15T20:59:29.584Z,101095.59
2018-07-15T21:01:56.260Z,101098.75
2018-07-15T21:04:22.960Z,101093.92
2018-07-15T21:06:49.640Z,101097.57
2018-07-15T21:09:16.304Z,101093.20
2018-07-15T21:11:44.057Z,101091.53
2018-07-15T21:14:10.716Z,101094.19
2018-07-15T21:16:37.389Z,101092.38
2018-07-15T21:19:04.269Z,101090.36
2018-07-15T21:21:30.917Z,101097.48
2018-07-15T21:23:57.597Z,101097.83
2018-07-15T21:26:24.269Z,101100.75
2018-07-15T21:28:50.918Z,101096.16
2018-07-15T21:31:17.734Z,101102.09
2018-07-15T21:33:45.487Z,101096.92
2018-07-15T21:36:12.162Z,101101.05
2018-07-15T21:38:38.817Z,101092.70
2018-07-15T21:41:06.507Z,101093.08
2018-07-15T21:43:33.155Z,101094.67
2018-07-15T21:45:59.888Z,101101.17
2018-07-15T21:48:26.520Z,101105.04
2018-07-15T21:50:53.208Z,101110.36
2018-07-15T21:53:19.852Z,101116.51
2018-07-15T21:55:46.507Z,101115.93
2018-07-15T21:58:14.265Z,101112.78
2018-07-15T22:00:40.912Z,101115.09
2018-07-15T22:03:07.581Z,101117.75
2018-07-15T22:05:34.217Z,101119.16
2018-07-15T22:08:06.753Z,101127.63
2018-07-15T22:10:37.734Z,101126.22
2018-07-15T22:13:04.410Z,101128.15
2018-07-15T22:15:31.058Z,101123.91
2018-07-15T22:17:57.753Z,101126.07
2018-07-15T22:20:24.406Z,101127.70
2018-07-15T22:22:51.061Z,101128.73
2018-07-15T22:25:17.700Z,101131.38
2018-07-15T22:27:45.049Z,101134.38
2018-07-15T22:30:11.697Z,101132.86
2018-07-15T22:32:38.366Z,101127.05
2018-07-15T22:35:05.020Z,101128.98
2018-07-15T22:37:31.688Z,101129.45
2018-07-15T22:39:58.346Z,101126.83
2018-07-15T22:42:25.027Z,101127.25
2018-07-15T22:44:51.681Z,101125.80
2018-07-15T22:47:18.359Z,101128.23
2018-07-15T22:49:45.011Z,101128.37
2018-07-15T22:52:11.700Z,101134.87
2018-07-15T22:54:38.383Z,101133.34
2018-07-15T22:57:05.064Z,101133.46
2018-07-15T22:59:31.791Z,101136.13
2018-07-15T23:01:58.440Z,101127.39
2018-07-15T23:05:31.289Z,101132.28
2018-07-15T23:07:58.814Z,101131.27
2018-07-15T23:10:25.461Z,101128.22
2018-07-15T23:12:52.748Z,101129.72
2018-07-15T23:15:19.407Z,101121.95
2018-07-15T23:17:46.273Z,101118.77
2018-07-15T23:20:13.593Z,101112.13
2018-07-15T23:22:40.261Z,101115.16
2018-07-15T23:25:08.121Z,101113.83
2018-07-15T23:27:35.247Z,101112.27
2018-07-15T23:30:02.629Z,101109.55
2018-07-15T23:32:29.293Z,101108.86
2018-07-15T23:34:55.956Z,101108.60
2018-07-15T23:37:22.612Z,101112.36
2018-07-15T23:39:49.254Z,101111.87
2018-07-15T23:42:15.895Z,101115.16
2018-07-15T23:44:42.564Z,101122.98
2018-07-15T23:47:09.213Z,101125.30
2018-07-15T23:49:36.557Z,101127.31
2018-07-15T23:52:03.193Z,101120.82
2018-07-15T23:54:29.860Z,101124.23
2018-07-15T23:56:56.512Z,101122.90
2018-07-15T23:59:23.169Z,101125.22
